sensor_id;sensor_type;location;lat;lon;timestamp;P1;durP1;ratioP1;P2;durP2;ratioP2
3189;SDS011;1606;51.946;10.558;2023-02-03T00:00:29;6.17;;;1.90;;
3189;SDS011;1606;51.946;10.558;2023-02-03T00:02:57;6.37;;;1.73;;
3189;SDS011;1606;51.946;10.558;2023-02-03T00:05:25;6.30;;;1.47;;
3189;SDS011;1606;51.946;10.558;2023-02-03T00:07:53;6.90;;;2.13;;
3189;SDS011;1606;51.946;10.558;2023-02-03T00:10:22;6.27;;;1.90;;
3189;SDS011;1606;51.946;10.558;2023-02-03T00:12:50;6.57;;;1.90;;
3189;SDS011;1606;51.946;10.558;2023-02-03T00:15:18;7.00;;;2.03;;
3189;SDS011;1606;51.946;10.558;2023-02-03T00:17:48;7.00;;;2.33;;
3189;SDS011;1606;51.946;10.558;2023-02-03T00:20:16;7.80;;;2.40;;
3189;SDS011;1606;51.946;10.558;2023-02-03T00:22:44;8.30;;;2.57;;
3189;SDS011;1606;51.946;10.558;2023-02-03T00:25:11;7.30;;;3.07;;
3189;SDS011;1606;51.946;10.558;2023-02-03T00:27:41;6.90;;;2.17;;
3189;SDS011;1606;51.946;10.558;2023-02-03T00:30:09;7.00;;;2.10;;
3189;SDS011;1606;51.946;10.558;2023-02-03T00:32:38;6.70;;;1.90;;
3189;SDS011;1606;51.946;10.558;2023-02-03T00:35:06;6.60;;;1.97;;
3189;SDS011;1606;51.946;10.558;2023-02-03T00:37:34;7.47;;;2.80;;
3189;SDS011;1606;51.946;10.558;2023-02-03T00:40:02;8.13;;;2.97;;
3189;SDS011;1606;51.946;10.558;2023-02-03T00:42:32;8.60;;;3.63;;
3189;SDS011;1606;51.946;10.558;2023-02-03T00:45:02;8.57;;;3.17;;
3189;SDS011;1606;51.946;10.558;2023-02-03T00:47:30;9.47;;;4.40;;
3189;SDS011;1606;51.946;10.558;2023-02-03T00:49:57;9.47;;;4.60;;
3189;SDS011;1606;51.946;10.558;2023-02-03T00:52:25;10.33;;;5.23;;
3189;SDS011;1606;51.946;10.558;2023-02-03T00:54:53;10.37;;;5.33;;
3189;SDS011;1606;51.946;10.558;2023-02-03T00:57:21;10.03;;;5.70;;
3189;SDS011;1606;51.946;10.558;2023-02-03T00:59:48;12.23;;;5.70;;
3189;SDS011;1606;51.946;10.558;2023-02-03T01:02:17;10.37;;;5.63;;
3189;SDS011;1606;51.946;10.558;2023-02-03T01:04:45;12.23;;;6.00;;
3189;SDS011;1606;51.946;10.558;2023-02-03T01:07:13;11.67;;;6.73;;
3189;SDS011;1606;51.946;10.558;2023-02-03T01:09:41;14.03;;;6.00;;
3189;SDS011;1606;51.946;10.558;2023-02-03T01:12:09;11.33;;;6.20;;
3189;SDS011;1606;51.946;10.558;2023-02-03T01:14:37;14.07;;;6.90;;
3189;SDS011;1606;51.946;10.558;2023-02-03T01:17:04;12.83;;;7.10;;
3189;SDS011;1606;51.946;10.558;2023-02-03T01:19:34;12.30;;;6.40;;
3189;SDS011;1606;51.946;10.558;2023-02-03T01:22:01;14.50;;;7.00;;
3189;SDS011;1606;51.946;10.558;2023-02-03T01:24:29;13.70;;;7.87;;
3189;SDS011;1606;51.946;10.558;2023-02-03T01:26:58;17.67;;;8.60;;
3189;SDS011;1606;51.946;10.558;2023-02-03T01:29:25;15.50;;;8.77;;
3189;SDS011;1606;51.946;10.558;2023-02-03T01:31:53;14.07;;;7.40;;
3189;SDS011;1606;51.946;10.558;2023-02-03T01:34:21;13.33;;;8.30;;
3189;SDS011;1606;51.946;10.558;2023-02-03T01:36:50;15.33;;;9.30;;
3189;SDS011;1606;51.946;10.558;2023-02-03T01:39:18;14.63;;;7.67;;
3189;SDS011;1606;51.946;10.558;2023-02-03T01:41:46;15.60;;;9.25;;
3189;SDS011;1606;51.946;10.558;2023-02-03T01:44:34;15.00;;;8.67;;
3189;SDS011;1606;51.946;10.558;2023-02-03T01:47:10;14.77;;;7.93;;
3189;SDS011;1606;51.946;10.558;2023-02-03T01:49:43;14.60;;;8.90;;
3189;SDS011;1606;51.946;10.558;2023-02-03T01:52:15;14.40;;;8.70;;
3189;SDS011;1606;51.946;10.558;2023-02-03T01:54:44;16.60;;;8.67;;
3189;SDS011;1606;51.946;10.558;2023-02-03T01:57:15;13.93;;;8.10;;
3189;SDS011;1606;51.946;10.558;2023-02-03T01:59:45;14.90;;;8.27;;
3189;SDS011;1606;51.946;10.558;2023-02-03T02:02:15;15.53;;;8.60;;
3189;SDS011;1606;51.946;10.558;2023-02-03T02:04:46;15.90;;;9.23;;
3189;SDS011;1606;51.946;10.558;2023-02-03T02:07:21;19.00;;;9.27;;
3189;SDS011;1606;51.946;10.558;2023-02-03T02:09:50;15.27;;;9.73;;
3189;SDS011;1606;51.946;10.558;2023-02-03T02:12:18;16.73;;;9.33;;
3189;SDS011;1606;51.946;10.558;2023-02-03T02:14:45;16.17;;;10.13;;
3189;SDS011;1606;51.946;10.558;2023-02-03T02:17:18;19.80;;;11.20;;
3189;SDS011;1606;51.946;10.558;2023-02-03T02:20:12;16.20;;;9.30;;
3189;SDS011;1606;51.946;10.558;2023-02-03T02:23:15;17.40;;;9.57;;
3189;SDS011;1606;51.946;10.558;2023-02-03T02:26:13;16.70;;;8.80;;
3189;SDS011;1606;51.946;10.558;2023-02-03T02:29:11;16.93;;;8.77;;
3189;SDS011;1606;51.946;10.558;2023-02-03T02:32:10;14.40;;;8.40;;
3189;SDS011;1606;51.946;10.558;2023-02-03T02:34:56;15.07;;;9.60;;
3189;SDS011;1606;51.946;10.558;2023-02-03T02:37:32;17.10;;;8.37;;
3189;SDS011;1606;51.946;10.558;2023-02-03T02:40:06;14.73;;;8.90;;
3189;SDS011;1606;51.946;10.558;2023-02-03T02:42:45;20.93;;;8.23;;
3189;SDS011;1606;51.946;10.558;2023-02-03T02:45:23;17.77;;;8.63;;
3189;SDS011;1606;51.946;10.558;2023-02-03T02:47:58;15.83;;;10.43;;
3189;SDS011;1606;51.946;10.558;2023-02-03T02:50:29;16.60;;;9.03;;
3189;SDS011;1606;51.946;10.558;2023-02-03T02:53:00;13.90;;;9.03;;
3189;SDS011;1606;51.946;10.558;2023-02-03T02:55:30;15.40;;;8.70;;
3189;SDS011;1606;51.946;10.558;2023-02-03T02:58:01;14.63;;;8.53;;
3189;SDS011;1606;51.946;10.558;2023-02-03T03:00:33;13.83;;;8.80;;
3189;SDS011;1606;51.946;10.558;2023-02-03T03:03:13;14.80;;;9.90;;
3189;SDS011;1606;51.946;10.558;2023-02-03T03:05:43;15.03;;;8.77;;
3189;SDS011;1606;51.946;10.558;2023-02-03T03:08:17;17.10;;;8.40;;
3189;SDS011;1606;51.946;10.558;2023-02-03T03:10:49;15.57;;;9.20;;
3189;SDS011;1606;51.946;10.558;2023-02-03T03:13:19;18.33;;;9.80;;
3189;SDS011;1606;51.946;10.558;2023-02-03T03:15:51;14.67;;;8.67;;
3189;SDS011;1606;51.946;10.558;2023-02-03T03:18:24;14.33;;;9.23;;
3189;SDS011;1606;51.946;10.558;2023-02-03T03:20:56;18.70;;;9.83;;
3189;SDS011;1606;51.946;10.558;2023-02-03T03:23:32;15.20;;;10.10;;
3189;SDS011;1606;51.946;10.558;2023-02-03T03:26:06;15.77;;;9.43;;
3189;SDS011;1606;51.946;10.558;2023-02-03T03:28:41;13.63;;;7.90;;
3189;SDS011;1606;51.946;10.558;2023-02-03T03:31:13;13.57;;;8.53;;
3189;SDS011;1606;51.946;10.558;2023-02-03T03:33:43;16.00;;;7.90;;
3189;SDS011;1606;51.946;10.558;2023-02-03T03:36:18;14.80;;;9.03;;
3189;SDS011;1606;51.946;10.558;2023-02-03T03:38:52;19.37;;;9.63;;
3189;SDS011;1606;51.946;10.558;2023-02-03T03:41:24;16.90;;;8.93;;
3189;SDS011;1606;51.946;10.558;2023-02-03T03:43:58;13.50;;;8.70;;
3189;SDS011;1606;51.946;10.558;2023-02-03T03:46:30;12.97;;;8.13;;
3189;SDS011;1606;51.946;10.558;2023-02-03T03:49:07;16.43;;;9.37;;
3189;SDS011;1606;51.946;10.558;2023-02-03T03:51:39;16.67;;;8.13;;
3189;SDS011;1606;51.946;10.558;2023-02-03T03:54:11;12.47;;;8.37;;
3189;SDS011;1606;51.946;10.558;2023-02-03T03:56:42;15.63;;;8.77;;
3189;SDS011;1606;51.946;10.558;2023-02-03T03:59:14;15.90;;;8.57;;
3189;SDS011;1606;51.946;10.558;2023-02-03T04:01:45;14.67;;;8.60;;
3189;SDS011;1606;51.946;10.558;2023-02-03T04:04:15;13.00;;;7.87;;
3189;SDS011;1606;51.946;10.558;2023-02-03T04:06:43;14.83;;;8.67;;
3189;SDS011;1606;51.946;10.558;2023-02-03T04:09:11;17.13;;;8.60;;
3189;SDS011;1606;51.946;10.558;2023-02-03T04:11:39;14.67;;;9.63;;
3189;SDS011;1606;51.946;10.558;2023-02-03T04:14:36;12.90;;;8.60;;
3189;SDS011;1606;51.946;10.558;2023-02-03T04:17:04;15.03;;;8.03;;
3189;SDS011;1606;51.946;10.558;2023-02-03T04:19:33;16.90;;;8.57;;
3189;SDS011;1606;51.946;10.558;2023-02-03T04:22:01;16.53;;;9.60;;
3189;SDS011;1606;51.946;10.558;2023-02-03T04:24:29;14.00;;;8.70;;
3189;SDS011;1606;51.946;10.558;2023-02-03T04:26:57;17.33;;;7.80;;
3189;SDS011;1606;51.946;10.558;2023-02-03T04:29:24;12.30;;;7.80;;
3189;SDS011;1606;51.946;10.558;2023-02-03T04:31:52;12.60;;;7.63;;
3189;SDS011;1606;51.946;10.558;2023-02-03T04:34:20;17.20;;;8.27;;
3189;SDS011;1606;51.946;10.558;2023-02-03T04:36:49;14.70;;;8.47;;
3189;SDS011;1606;51.946;10.558;2023-02-03T04:39:16;15.50;;;7.47;;
3189;SDS011;1606;51.946;10.558;2023-02-03T04:41:44;12.93;;;7.80;;
3189;SDS011;1606;51.946;10.558;2023-02-03T04:44:12;13.53;;;7.40;;
3189;SDS011;1606;51.946;10.558;2023-02-03T04:46:40;11.00;;;6.60;;
3189;SDS011;1606;51.946;10.558;2023-02-03T04:49:07;16.13;;;7.57;;
3189;SDS011;1606;51.946;10.558;2023-02-03T04:51:36;14.87;;;6.97;;
3189;SDS011;1606;51.946;10.558;2023-02-03T04:54:05;12.23;;;6.50;;
3189;SDS011;1606;51.946;10.558;2023-02-03T04:56:33;13.00;;;7.30;;
3189;SDS011;1606;51.946;10.558;2023-02-03T04:59:01;15.40;;;7.40;;
3189;SDS011;1606;51.946;10.558;2023-02-03T05:01:29;14.13;;;6.67;;
3189;SDS011;1606;51.946;10.558;2023-02-03T05:03:57;11.00;;;6.40;;
3189;SDS011;1606;51.946;10.558;2023-02-03T05:06:25;10.73;;;6.50;;
3189;SDS011;1606;51.946;10.558;2023-02-03T05:08:55;13.13;;;6.63;;
3189;SDS011;1606;51.946;10.558;2023-02-03T05:11:24;12.57;;;7.30;;
3189;SDS011;1606;51.946;10.558;2023-02-03T05:13:52;13.43;;;7.10;;
3189;SDS011;1606;51.946;10.558;2023-02-03T05:16:20;13.50;;;6.27;;
3189;SDS011;1606;51.946;10.558;2023-02-03T05:18:48;18.00;;;6.90;;
3189;SDS011;1606;51.946;10.558;2023-02-03T05:21:15;13.17;;;6.13;;
3189;SDS011;1606;51.946;10.558;2023-02-03T05:23:44;16.63;;;7.40;;
3189;SDS011;1606;51.946;10.558;2023-02-03T05:26:11;14.57;;;6.40;;
3189;SDS011;1606;51.946;10.558;2023-02-03T05:28:40;16.40;;;7.73;;
3189;SDS011;1606;51.946;10.558;2023-02-03T05:31:08;13.43;;;6.73;;
3189;SDS011;1606;51.946;10.558;2023-02-03T05:33:36;14.67;;;7.33;;
3189;SDS011;1606;51.946;10.558;2023-02-03T05:36:04;13.93;;;6.77;;
3189;SDS011;1606;51.946;10.558;2023-02-03T05:38:32;14.30;;;6.33;;
3189;SDS011;1606;51.946;10.558;2023-02-03T05:41:00;11.13;;;6.57;;
3189;SDS011;1606;51.946;10.558;2023-02-03T05:43:46;11.23;;;6.90;;
3189;SDS011;1606;51.946;10.558;2023-02-03T05:46:14;11.47;;;5.93;;
3189;SDS011;1606;51.946;10.558;2023-02-03T05:48:42;15.63;;;6.17;;
3189;SDS011;1606;51.946;10.558;2023-02-03T05:51:10;12.70;;;6.23;;
3189;SDS011;1606;51.946;10.558;2023-02-03T05:53:37;10.23;;;6.23;;
3189;SDS011;1606;51.946;10.558;2023-02-03T05:56:05;14.30;;;6.43;;
3189;SDS011;1606;51.946;10.558;2023-02-03T05:58:34;12.53;;;6.33;;
3189;SDS011;1606;51.946;10.558;2023-02-03T06:01:03;10.83;;;5.87;;
3189;SDS011;1606;51.946;10.558;2023-02-03T06:03:31;12.10;;;5.53;;
3189;SDS011;1606;51.946;10.558;2023-02-03T06:05:59;11.00;;;6.07;;
3189;SDS011;1606;51.946;10.558;2023-02-03T06:08:26;11.10;;;5.90;;
3189;SDS011;1606;51.946;10.558;2023-02-03T06:10:56;12.67;;;6.70;;
3189;SDS011;1606;51.946;10.558;2023-02-03T06:13:25;12.10;;;6.30;;
3189;SDS011;1606;51.946;10.558;2023-02-03T06:15:53;13.13;;;6.87;;
3189;SDS011;1606;51.946;10.558;2023-02-03T06:18:22;16.83;;;7.03;;
3189;SDS011;1606;51.946;10.558;2023-02-03T06:20:50;13.40;;;7.20;;
3189;SDS011;1606;51.946;10.558;2023-02-03T06:23:18;11.97;;;6.70;;
3189;SDS011;1606;51.946;10.558;2023-02-03T06:25:46;10.03;;;5.47;;
3189;SDS011;1606;51.946;10.558;2023-02-03T06:28:15;9.83;;;6.43;;
3189;SDS011;1606;51.946;10.558;2023-02-03T06:30:43;13.00;;;6.13;;
3189;SDS011;1606;51.946;10.558;2023-02-03T06:33:11;15.40;;;6.03;;
3189;SDS011;1606;51.946;10.558;2023-02-03T06:35:40;9.13;;;5.00;;
3189;SDS011;1606;51.946;10.558;2023-02-03T06:38:07;18.27;;;6.40;;
3189;SDS011;1606;51.946;10.558;2023-02-03T06:40:35;8.93;;;5.00;;
3189;SDS011;1606;51.946;10.558;2023-02-03T06:43:03;12.13;;;5.63;;
3189;SDS011;1606;51.946;10.558;2023-02-03T06:45:31;12.00;;;6.40;;
3189;SDS011;1606;51.946;10.558;2023-02-03T06:47:59;9.67;;;5.07;;
3189;SDS011;1606;51.946;10.558;2023-02-03T06:50:27;9.93;;;4.97;;
3189;SDS011;1606;51.946;10.558;2023-02-03T06:52:57;9.83;;;4.87;;
3189;SDS011;1606;51.946;10.558;2023-02-03T06:55:34;12.93;;;5.17;;
3189;SDS011;1606;51.946;10.558;2023-02-03T06:58:03;13.83;;;4.93;;
3189;SDS011;1606;51.946;10.558;2023-02-03T07:00:31;12.07;;;5.60;;
3189;SDS011;1606;51.946;10.558;2023-02-03T07:02:59;10.90;;;4.70;;
3189;SDS011;1606;51.946;10.558;2023-02-03T07:05:27;11.10;;;4.93;;
3189;SDS011;1606;51.946;10.558;2023-02-03T07:07:56;12.77;;;6.13;;
3189;SDS011;1606;51.946;10.558;2023-02-03T07:10:24;11.63;;;5.00;;
3189;SDS011;1606;51.946;10.558;2023-02-03T07:12:52;9.67;;;4.53;;
3189;SDS011;1606;51.946;10.558;2023-02-03T07:15:20;10.53;;;5.97;;
3189;SDS011;1606;51.946;10.558;2023-02-03T07:17:48;11.30;;;5.23;;
3189;SDS011;1606;51.946;10.558;2023-02-03T07:20:20;8.93;;;4.70;;
3189;SDS011;1606;51.946;10.558;2023-02-03T07:22:52;10.20;;;5.17;;
3189;SDS011;1606;51.946;10.558;2023-02-03T07:25:21;18.27;;;6.07;;
3189;SDS011;1606;51.946;10.558;2023-02-03T07:27:53;12.83;;;5.00;;
3189;SDS011;1606;51.946;10.558;2023-02-03T07:30:21;10.60;;;5.37;;
3189;SDS011;1606;51.946;10.558;2023-02-03T07:32:49;11.70;;;5.33;;
3189;SDS011;1606;51.946;10.558;2023-02-03T07:35:18;11.90;;;5.43;;
3189;SDS011;1606;51.946;10.558;2023-02-03T07:37:46;9.73;;;5.00;;
3189;SDS011;1606;51.946;10.558;2023-02-03T07:40:14;12.57;;;5.17;;
3189;SDS011;1606;51.946;10.558;2023-02-03T07:42:43;16.97;;;6.20;;
3189;SDS011;1606;51.946;10.558;2023-02-03T07:45:13;9.03;;;4.93;;
3189;SDS011;1606;51.946;10.558;2023-02-03T07:47:43;9.37;;;4.50;;
3189;SDS011;1606;51.946;10.558;2023-02-03T07:50:11;11.50;;;4.80;;
3189;SDS011;1606;51.946;10.558;2023-02-03T07:52:39;10.87;;;4.90;;
3189;SDS011;1606;51.946;10.558;2023-02-03T07:55:07;8.80;;;4.50;;
3189;SDS011;1606;51.946;10.558;2023-02-03T07:57:36;11.00;;;4.47;;
3189;SDS011;1606;51.946;10.558;2023-02-03T08:00:13;11.00;;;3.70;;
3189;SDS011;1606;51.946;10.558;2023-02-03T08:02:42;10.23;;;4.50;;
3189;SDS011;1606;51.946;10.558;2023-02-03T08:05:10;8.43;;;3.93;;
3189;SDS011;1606;51.946;10.558;2023-02-03T08:07:39;8.10;;;3.97;;
3189;SDS011;1606;51.946;10.558;2023-02-03T08:10:07;9.60;;;4.03;;
3189;SDS011;1606;51.946;10.558;2023-02-03T08:12:41;8.80;;;3.57;;
3189;SDS011;1606;51.946;10.558;2023-02-03T08:15:12;7.70;;;3.37;;
3189;SDS011;1606;51.946;10.558;2023-02-03T08:17:40;7.77;;;3.00;;
3189;SDS011;1606;51.946;10.558;2023-02-03T08:20:10;10.70;;;3.30;;
3189;SDS011;1606;51.946;10.558;2023-02-03T08:22:38;7.80;;;3.87;;
3189;SDS011;1606;51.946;10.558;2023-02-03T08:25:06;7.93;;;2.90;;
3189;SDS011;1606;51.946;10.558;2023-02-03T08:27:34;7.87;;;2.57;;
3189;SDS011;1606;51.946;10.558;2023-02-03T08:30:03;7.50;;;3.30;;
3189;SDS011;1606;51.946;10.558;2023-02-03T08:32:32;6.57;;;2.90;;
3189;SDS011;1606;51.946;10.558;2023-02-03T08:35:00;6.77;;;2.80;;
3189;SDS011;1606;51.946;10.558;2023-02-03T08:37:29;8.47;;;2.50;;
3189;SDS011;1606;51.946;10.558;2023-02-03T08:39:57;10.50;;;2.87;;
3189;SDS011;1606;51.946;10.558;2023-02-03T08:42:26;8.33;;;2.83;;
3189;SDS011;1606;51.946;10.558;2023-02-03T08:44:54;6.50;;;2.40;;
3189;SDS011;1606;51.946;10.558;2023-02-03T08:47:22;8.00;;;2.67;;
3189;SDS011;1606;51.946;10.558;2023-02-03T08:49:51;6.82;;;1.70;;
3189;SDS011;1606;51.946;10.558;2023-02-03T08:52:19;6.20;;;2.03;;
3189;SDS011;1606;51.946;10.558;2023-02-03T08:54:47;6.40;;;2.30;;
3189;SDS011;1606;51.946;10.558;2023-02-03T08:57:15;15.27;;;2.10;;
3189;SDS011;1606;51.946;10.558;2023-02-03T08:59:42;6.47;;;1.63;;
3189;SDS011;1606;51.946;10.558;2023-02-03T09:02:14;6.53;;;1.90;;
3189;SDS011;1606;51.946;10.558;2023-02-03T09:04:43;6.00;;;1.67;;
3189;SDS011;1606;51.946;10.558;2023-02-03T09:07:13;6.20;;;2.10;;
3189;SDS011;1606;51.946;10.558;2023-02-03T09:09:41;6.20;;;1.53;;
3189;SDS011;1606;51.946;10.558;2023-02-03T09:12:09;6.67;;;1.97;;
3189;SDS011;1606;51.946;10.558;2023-02-03T09:14:38;5.50;;;1.17;;
3189;SDS011;1606;51.946;10.558;2023-02-03T09:17:06;5.40;;;1.00;;
3189;SDS011;1606;51.946;10.558;2023-02-03T09:19:34;5.83;;;1.53;;
3189;SDS011;1606;51.946;10.558;2023-02-03T09:22:02;5.50;;;1.30;;
3189;SDS011;1606;51.946;10.558;2023-02-03T09:24:32;6.53;;;1.30;;
3189;SDS011;1606;51.946;10.558;2023-02-03T09:26:59;6.23;;;1.30;;
3189;SDS011;1606;51.946;10.558;2023-02-03T09:29:27;6.00;;;1.40;;
3189;SDS011;1606;51.946;10.558;2023-02-03T09:31:55;6.80;;;1.67;;
3189;SDS011;1606;51.946;10.558;2023-02-03T09:34:23;7.03;;;1.90;;
3189;SDS011;1606;51.946;10.558;2023-02-03T09:36:51;7.17;;;1.37;;
3189;SDS011;1606;51.946;10.558;2023-02-03T09:39:18;6.63;;;2.33;;
3189;SDS011;1606;51.946;10.558;2023-02-03T09:41:53;5.97;;;1.60;;
3189;SDS011;1606;51.946;10.558;2023-02-03T09:44:30;6.87;;;1.87;;
3189;SDS011;1606;51.946;10.558;2023-02-03T09:47:08;7.00;;;1.70;;
3189;SDS011;1606;51.946;10.558;2023-02-03T09:49:40;6.00;;;1.67;;
3189;SDS011;1606;51.946;10.558;2023-02-03T09:52:14;7.03;;;1.63;;
3189;SDS011;1606;51.946;10.558;2023-02-03T09:54:46;7.23;;;2.07;;
3189;SDS011;1606;51.946;10.558;2023-02-03T09:57:21;6.10;;;1.60;;
3189;SDS011;1606;51.946;10.558;2023-02-03T09:59:50;6.00;;;1.80;;
3189;SDS011;1606;51.946;10.558;2023-02-03T10:02:24;7.07;;;1.73;;
3189;SDS011;1606;51.946;10.558;2023-02-03T10:05:14;6.77;;;1.70;;
3189;SDS011;1606;51.946;10.558;2023-02-03T10:07:49;7.23;;;2.07;;
3189;SDS011;1606;51.946;10.558;2023-02-03T10:10:31;7.27;;;2.57;;
3189;SDS011;1606;51.946;10.558;2023-02-03T10:13:14;7.00;;;2.30;;
3189;SDS011;1606;51.946;10.558;2023-02-03T10:15:55;8.23;;;2.37;;
3189;SDS011;1606;51.946;10.558;2023-02-03T10:18:35;8.80;;;2.90;;
3189;SDS011;1606;51.946;10.558;2023-02-03T10:21:10;8.47;;;2.63;;
3189;SDS011;1606;51.946;10.558;2023-02-03T10:23:42;8.27;;;3.17;;
3189;SDS011;1606;51.946;10.558;2023-02-03T10:26:13;10.83;;;2.57;;
3189;SDS011;1606;51.946;10.558;2023-02-03T10:28:54;7.80;;;2.70;;
3189;SDS011;1606;51.946;10.558;2023-02-03T10:31:23;9.82;;;3.20;;
3189;SDS011;1606;51.946;10.558;2023-02-03T10:33:57;7.63;;;2.60;;
3189;SDS011;1606;51.946;10.558;2023-02-03T10:36:32;12.87;;;2.80;;
3189;SDS011;1606;51.946;10.558;2023-02-03T10:39:14;9.20;;;3.30;;
3189;SDS011;1606;51.946;10.558;2023-02-03T10:41:47;12.40;;;3.20;;
3189;SDS011;1606;51.946;10.558;2023-02-03T10:44:23;11.80;;;2.70;;
3189;SDS011;1606;51.946;10.558;2023-02-03T10:46:56;12.17;;;2.70;;
3189;SDS011;1606;51.946;10.558;2023-02-03T10:49:25;11.00;;;2.67;;
3189;SDS011;1606;51.946;10.558;2023-02-03T10:51:56;6.50;;;2.33;;
3189;SDS011;1606;51.946;10.558;2023-02-03T10:54:30;9.23;;;2.40;;
3189;SDS011;1606;51.946;10.558;2023-02-03T10:57:03;13.33;;;2.27;;
3189;SDS011;1606;51.946;10.558;2023-02-03T10:59:36;7.87;;;2.10;;
3189;SDS011;1606;51.946;10.558;2023-02-03T11:02:09;8.00;;;2.60;;
3189;SDS011;1606;51.946;10.558;2023-02-03T11:07:44;7.03;;;2.00;;
3189;SDS011;1606;51.946;10.558;2023-02-03T11:10:26;7.27;;;1.50;;
3189;SDS011;1606;51.946;10.558;2023-02-03T11:13:14;6.23;;;1.40;;
3189;SDS011;1606;51.946;10.558;2023-02-03T11:15:51;8.47;;;1.73;;
3189;SDS011;1606;51.946;10.558;2023-02-03T11:18:26;6.70;;;1.30;;
3189;SDS011;1606;51.946;10.558;2023-02-03T11:21:14;7.43;;;1.60;;
3189;SDS011;1606;51.946;10.558;2023-02-03T11:23:45;7.77;;;1.53;;
3189;SDS011;1606;51.946;10.558;2023-02-03T11:26:20;8.17;;;1.70;;
3189;SDS011;1606;51.946;10.558;2023-02-03T11:28:50;8.63;;;1.87;;
3189;SDS011;1606;51.946;10.558;2023-02-03T11:31:23;9.30;;;2.13;;
3189;SDS011;1606;51.946;10.558;2023-02-03T11:33:55;9.60;;;2.17;;
3189;SDS011;1606;51.946;10.558;2023-02-03T11:36:25;7.63;;;1.90;;
3189;SDS011;1606;51.946;10.558;2023-02-03T11:41:46;8.20;;;2.40;;
3189;SDS011;1606;51.946;10.558;2023-02-03T11:44:16;11.47;;;2.43;;
3189;SDS011;1606;51.946;10.558;2023-02-03T11:46:48;10.43;;;2.33;;
3189;SDS011;1606;51.946;10.558;2023-02-03T11:49:27;11.40;;;2.17;;
3189;SDS011;1606;51.946;10.558;2023-02-03T11:55:26;8.97;;;1.80;;
3189;SDS011;1606;51.946;10.558;2023-02-03T11:58:05;10.83;;;2.20;;
3189;SDS011;1606;51.946;10.558;2023-02-03T12:00:42;9.83;;;2.13;;
3189;SDS011;1606;51.946;10.558;2023-02-03T12:03:25;9.20;;;2.13;;
3189;SDS011;1606;51.946;10.558;2023-02-03T12:06:09;10.73;;;2.33;;
3189;SDS011;1606;51.946;10.558;2023-02-03T12:08:49;11.60;;;2.10;;
3189;SDS011;1606;51.946;10.558;2023-02-03T12:11:29;13.90;;;3.13;;
3189;SDS011;1606;51.946;10.558;2023-02-03T12:14:10;11.15;;;2.42;;
3189;SDS011;1606;51.946;10.558;2023-02-03T12:16:57;9.87;;;2.50;;
3189;SDS011;1606;51.946;10.558;2023-02-03T12:19:40;13.63;;;2.03;;
3189;SDS011;1606;51.946;10.558;2023-02-03T12:22:21;14.23;;;2.07;;
3189;SDS011;1606;51.946;10.558;2023-02-03T12:24:57;10.67;;;2.43;;
3189;SDS011;1606;51.946;10.558;2023-02-03T12:27:37;11.20;;;2.13;;
3189;SDS011;1606;51.946;10.558;2023-02-03T12:30:13;10.30;;;2.70;;
3189;SDS011;1606;51.946;10.558;2023-02-03T12:32:47;11.00;;;2.00;;
3189;SDS011;1606;51.946;10.558;2023-02-03T12:35:19;12.17;;;2.77;;
3189;SDS011;1606;51.946;10.558;2023-02-03T12:37:53;14.00;;;2.50;;
3189;SDS011;1606;51.946;10.558;2023-02-03T12:40:25;17.73;;;3.27;;
3189;SDS011;1606;51.946;10.558;2023-02-03T12:43:03;25.33;;;3.60;;
3189;SDS011;1606;51.946;10.558;2023-02-03T12:45:44;13.07;;;3.67;;
3189;SDS011;1606;51.946;10.558;2023-02-03T12:48:19;17.03;;;3.30;;
3189;SDS011;1606;51.946;10.558;2023-02-03T12:50:53;18.77;;;3.70;;
3189;SDS011;1606;51.946;10.558;2023-02-03T12:53:26;16.80;;;3.47;;
3189;SDS011;1606;51.946;10.558;2023-02-03T12:55:57;17.87;;;3.07;;
3189;SDS011;1606;51.946;10.558;2023-02-03T12:58:30;14.20;;;3.43;;
3189;SDS011;1606;51.946;10.558;2023-02-03T13:01:03;22.30;;;3.93;;
3189;SDS011;1606;51.946;10.558;2023-02-03T13:03:35;12.40;;;2.70;;
3189;SDS011;1606;51.946;10.558;2023-02-03T13:06:11;15.10;;;3.53;;
3189;SDS011;1606;51.946;10.558;2023-02-03T13:08:45;13.60;;;3.10;;
3189;SDS011;1606;51.946;10.558;2023-02-03T13:11:22;15.50;;;4.37;;
3189;SDS011;1606;51.946;10.558;2023-02-03T13:13:57;15.40;;;3.33;;
3189;SDS011;1606;51.946;10.558;2023-02-03T13:16:32;12.40;;;3.57;;
3189;SDS011;1606;51.946;10.558;2023-02-03T13:19:04;15.97;;;3.17;;
3189;SDS011;1606;51.946;10.558;2023-02-03T13:21:40;15.13;;;3.00;;
3189;SDS011;1606;51.946;10.558;2023-02-03T13:24:08;15.93;;;3.70;;
3189;SDS011;1606;51.946;10.558;2023-02-03T13:26:50;18.30;;;3.80;;
3189;SDS011;1606;51.946;10.558;2023-02-03T13:29:31;21.03;;;6.93;;
3189;SDS011;1606;51.946;10.558;2023-02-03T13:32:15;28.33;;;4.27;;
3189;SDS011;1606;51.946;10.558;2023-02-03T13:35:02;17.83;;;3.23;;
3189;SDS011;1606;51.946;10.558;2023-02-03T13:38:06;13.10;;;3.00;;
3189;SDS011;1606;51.946;10.558;2023-02-03T13:40:50;11.80;;;2.70;;
3189;SDS011;1606;51.946;10.558;2023-02-03T13:43:27;15.70;;;3.73;;
3189;SDS011;1606;51.946;10.558;2023-02-03T13:46:04;17.50;;;3.30;;
3189;SDS011;1606;51.946;10.558;2023-02-03T13:48:39;18.87;;;3.77;;
3189;SDS011;1606;51.946;10.558;2023-02-03T13:51:12;15.87;;;3.33;;
3189;SDS011;1606;51.946;10.558;2023-02-03T13:53:44;22.13;;;4.00;;
3189;SDS011;1606;51.946;10.558;2023-02-03T13:56:16;16.47;;;2.90;;
3189;SDS011;1606;51.946;10.558;2023-02-03T13:58:57;14.43;;;3.97;;
3189;SDS011;1606;51.946;10.558;2023-02-03T14:01:28;20.37;;;4.53;;
3189;SDS011;1606;51.946;10.558;2023-02-03T14:03:59;15.63;;;3.27;;
3189;SDS011;1606;51.946;10.558;2023-02-03T14:06:53;16.63;;;3.00;;
3189;SDS011;1606;51.946;10.558;2023-02-03T14:09:34;15.70;;;3.30;;
3189;SDS011;1606;51.946;10.558;2023-02-03T14:12:15;17.27;;;4.10;;
3189;SDS011;1606;51.946;10.558;2023-02-03T14:15:22;18.37;;;3.83;;
3189;SDS011;1606;51.946;10.558;2023-02-03T14:17:58;9.90;;;2.90;;
3189;SDS011;1606;51.946;10.558;2023-02-03T14:23:42;13.07;;;3.40;;
3189;SDS011;1606;51.946;10.558;2023-02-03T14:29:09;15.10;;;3.20;;
3189;SDS011;1606;51.946;10.558;2023-02-03T14:31:51;13.50;;;3.17;;
3189;SDS011;1606;51.946;10.558;2023-02-03T14:34:34;17.13;;;3.73;;
3189;SDS011;1606;51.946;10.558;2023-02-03T14:37:09;17.40;;;3.07;;
3189;SDS011;1606;51.946;10.558;2023-02-03T14:40:07;14.83;;;3.80;;
3189;SDS011;1606;51.946;10.558;2023-02-03T14:42:59;19.70;;;3.57;;
3189;SDS011;1606;51.946;10.558;2023-02-03T14:48:47;19.53;;;3.77;;
3189;SDS011;1606;51.946;10.558;2023-02-03T14:51:40;15.57;;;4.83;;
3189;SDS011;1606;51.946;10.558;2023-02-03T14:54:20;15.83;;;3.57;;
3189;SDS011;1606;51.946;10.558;2023-02-03T14:57:07;14.67;;;2.90;;
3189;SDS011;1606;51.946;10.558;2023-02-03T14:59:52;21.07;;;3.63;;
3189;SDS011;1606;51.946;10.558;2023-02-03T15:02:24;20.97;;;3.70;;
3189;SDS011;1606;51.946;10.558;2023-02-03T15:07:55;13.70;;;3.50;;
3189;SDS011;1606;51.946;10.558;2023-02-03T15:10:28;15.40;;;3.00;;
3189;SDS011;1606;51.946;10.558;2023-02-03T15:13:21;13.63;;;3.13;;
3189;SDS011;1606;51.946;10.558;2023-02-03T15:15:52;15.83;;;2.60;;
3189;SDS011;1606;51.946;10.558;2023-02-03T15:18:27;17.10;;;3.20;;
3189;SDS011;1606;51.946;10.558;2023-02-03T15:20:58;13.67;;;2.50;;
3189;SDS011;1606;51.946;10.558;2023-02-03T15:23:27;10.23;;;3.10;;
3189;SDS011;1606;51.946;10.558;2023-02-03T15:25:56;12.80;;;2.80;;
3189;SDS011;1606;51.946;10.558;2023-02-03T15:28:25;12.37;;;3.10;;
3189;SDS011;1606;51.946;10.558;2023-02-03T15:30:57;16.37;;;3.90;;
3189;SDS011;1606;51.946;10.558;2023-02-03T15:33:29;13.63;;;2.90;;
3189;SDS011;1606;51.946;10.558;2023-02-03T15:36:00;14.73;;;3.20;;
3189;SDS011;1606;51.946;10.558;2023-02-03T15:38:32;14.93;;;3.97;;
3189;SDS011;1606;51.946;10.558;2023-02-03T15:41:05;15.63;;;2.70;;
3189;SDS011;1606;51.946;10.558;2023-02-03T15:43:35;11.43;;;2.93;;
3189;SDS011;1606;51.946;10.558;2023-02-03T15:46:09;11.27;;;3.20;;